createdAt,value
2023-03-05T00:02:02.166Z,1.82
2023-03-05T00:05:04.485Z,1.77
2023-03-05T00:08:06.516Z,1.78
2023-03-05T00:11:10.734Z,1.76
2023-03-05T00:14:12.757Z,1.81
2023-03-05T00:17:15.695Z,1.77
2023-03-05T00:20:17.581Z,1.77
2023-03-05T00:23:19.338Z,1.82
2023-03-05T00:26:23.769Z,1.82
2023-03-05T00:29:25.912Z,1.81
2023-03-05T00:32:27.971Z,1.76
2023-03-05T00:35:30.329Z,1.71
2023-03-05T00:38:32.181Z,1.77
2023-03-05T00:41:33.835Z,1.81
2023-03-05T00:44:37.106Z,1.93
2023-03-05T00:47:40.127Z,1.92
2023-03-05T00:50:42.097Z,1.87
2023-03-05T00:53:43.895Z,1.84
2023-03-05T00:56:47.520Z,1.85
2023-03-05T00:59:49.393Z,1.81
2023-03-05T01:02:51.024Z,1.83
2023-03-05T01:05:53.020Z,1.83
2023-03-05T01:08:56.444Z,1.84
2023-03-05T01:12:00.163Z,1.80
2023-03-05T01:15:02.923Z,1.78
2023-03-05T01:18:05.135Z,1.86
2023-03-05T01:21:07.355Z,1.79
2023-03-05T01:24:09.548Z,1.86
2023-03-05T01:27:11.361Z,1.83
2023-03-05T01:30:16.383Z,1.87
2023-03-05T01:33:18.310Z,1.79
2023-03-05T01:36:23.532Z,1.77
2023-03-05T01:39:25.056Z,1.74
2023-03-05T01:42:26.787Z,1.72
2023-03-05T01:45:32.559Z,1.82
2023-03-05T01:48:35.024Z,1.81
2023-03-05T01:51:47.951Z,1.81
2023-03-05T01:54:53.750Z,1.84
2023-03-05T01:58:08.227Z,1.87
2023-03-05T02:01:09.907Z,1.88
2023-03-05T02:04:16.358Z,1.86
2023-03-05T02:07:19.073Z,1.86
2023-03-05T02:10:27.539Z,1.87
2023-03-05T02:13:35.648Z,1.90
2023-03-05T02:16:38.902Z,1.89
2023-03-05T02:19:52.646Z,1.98
2023-03-05T02:22:54.660Z,1.98
2023-03-05T02:25:56.707Z,1.89
2023-03-05T02:29:01.768Z,1.96
2023-03-05T02:32:04.233Z,1.94
2023-03-05T02:35:07.134Z,1.93
2023-03-05T02:38:10.572Z,2.01
2023-03-05T02:41:13.922Z,1.97
2023-03-05T02:44:15.764Z,1.98
2023-03-05T02:47:18.624Z,1.97
2023-03-05T02:50:20.654Z,2.01
2023-03-05T02:53:23.749Z,1.93
2023-03-05T02:56:26.230Z,1.96
2023-03-05T02:59:28.937Z,1.94
2023-03-05T03:02:31.094Z,1.92
2023-03-05T03:05:32.829Z,1.84
2023-03-05T03:08:34.814Z,1.85
2023-03-05T03:11:36.429Z,1.81
2023-03-05T03:14:41.416Z,1.76
2023-03-05T03:17:43.432Z,1.66
2023-03-05T03:20:45.236Z,1.64
2023-03-05T03:23:47.626Z,1.54
2023-03-05T03:26:50.111Z,1.51
2023-03-05T03:29:51.918Z,1.55
2023-03-05T03:32:54.043Z,1.59
2023-03-05T03:35:55.711Z,1.56
2023-03-05T03:38:57.510Z,1.53
2023-03-05T03:41:59.109Z,1.50
2023-03-05T03:45:02.543Z,1.62
2023-03-05T03:48:04.701Z,1.63
2023-03-05T03:51:07.786Z,1.66
2023-03-05T03:54:09.426Z,1.53
2023-03-05T03:57:11.286Z,1.49
2023-03-05T04:00:13.839Z,1.41
2023-03-05T04:03:16.850Z,1.56
2023-03-05T04:06:18.781Z,1.52
2023-03-05T04:09:20.835Z,1.57
2023-03-05T04:12:22.842Z,1.55
2023-03-05T04:15:25.072Z,1.55
2023-03-05T04:18:27.186Z,1.53
2023-03-05T04:21:29.670Z,1.55
2023-03-05T04:24:32.553Z,1.56
2023-03-05T04:27:34.419Z,1.56
2023-03-05T04:30:36.248Z,1.48
2023-03-05T04:33:38.041Z,1.47
2023-03-05T04:36:39.943Z,1.50
2023-03-05T04:39:41.888Z,1.50
2023-03-05T04:42:44.176Z,1.54
2023-03-05T04:45:46.155Z,1.63
2023-03-05T04:48:48.074Z,1.64
2023-03-05T04:51:50.183Z,1.59
2023-03-05T04:54:52.316Z,1.62
2023-03-05T04:57:54.161Z,1.61
2023-03-05T05:01:02.536Z,1.58
2023-03-05T05:04:04.156Z,1.56
2023-03-05T05:07:07.536Z,1.51
2023-03-05T05:10:10.952Z,1.53
2023-03-05T05:13:12.815Z,1.48
2023-03-05T05:16:15.873Z,1.45
2023-03-05T05:19:18.573Z,1.49
2023-03-05T05:22:20.734Z,1.46
2023-03-05T05:25:22.718Z,1.44
2023-03-05T05:28:24.588Z,1.35
2023-03-05T05:31:26.461Z,1.38
2023-03-05T05:34:28.643Z,1.34
2023-03-05T05:37:30.858Z,1.39
2023-03-05T05:40:32.608Z,1.46
2023-03-05T05:43:34.411Z,1.42
2023-03-05T05:46:36.514Z,1.48
2023-03-05T05:49:38.254Z,1.51
2023-03-05T05:52:40.222Z,1.52
2023-03-05T05:55:42.074Z,1.54
2023-03-05T05:58:47.299Z,1.46
2023-03-05T06:01:49.075Z,1.41
2023-03-05T06:04:50.860Z,1.47
2023-03-05T06:07:52.552Z,1.52
2023-03-05T06:10:55.976Z,1.48
2023-03-05T06:13:58.482Z,1.47
2023-03-05T06:17:00.718Z,1.62
2023-03-05T06:20:04.452Z,1.64
2023-03-05T06:23:07.249Z,1.56
2023-03-05T06:26:11.253Z,1.58
2023-03-05T06:29:13.024Z,1.63
2023-03-05T06:32:14.880Z,1.64
2023-03-05T06:35:17.522Z,1.71
2023-03-05T06:38:19.571Z,1.68
2023-03-05T06:41:28.133Z,1.76
2023-03-05T06:44:30.599Z,1.78
2023-03-05T06:47:32.548Z,1.84
2023-03-05T06:50:35.845Z,1.96
2023-03-05T06:53:39.831Z,1.86
2023-03-05T06:56:44.395Z,1.85
2023-03-05T06:59:46.130Z,1.90
2023-03-05T07:02:47.712Z,2.01
2023-03-05T07:05:49.630Z,1.97
2023-03-05T07:08:56.282Z,2.05
2023-03-05T07:11:58.018Z,2.05
2023-03-05T07:15:01.002Z,2.13
2023-03-05T07:18:02.933Z,2.11
2023-03-05T07:21:07.226Z,2.09
2023-03-05T07:24:09.439Z,2.13
2023-03-05T07:27:11.086Z,2.16
2023-03-05T07:30:13.045Z,2.14
2023-03-05T07:33:14.850Z,2.19
2023-03-05T07:36:17.763Z,2.09
2023-03-05T07:39:20.213Z,2.06
2023-03-05T07:42:22.098Z,2.10
2023-03-05T07:45:32.004Z,2.16
2023-03-05T07:48:34.407Z,2.17
2023-03-05T07:51:36.311Z,2.22
2023-03-05T07:54:41.624Z,2.20
2023-03-05T07:57:43.407Z,2.26
2023-03-05T08:00:45.150Z,2.28
2023-03-05T08:03:46.893Z,2.39
2023-03-05T08:06:49.980Z,2.51
2023-03-05T08:09:51.708Z,2.68
2023-03-05T08:12:53.658Z,2.71
2023-03-05T08:15:55.485Z,2.77
2023-03-05T08:18:58.360Z,2.91
2023-03-05T08:22:00.240Z,3.00
2023-03-05T08:25:04.079Z,3.13
2023-03-05T08:28:05.887Z,3.11
2023-03-05T08:31:15.783Z,3.13
2023-03-05T08:34:17.737Z,3.13
2023-03-05T08:37:19.516Z,3.17
2023-03-05T08:40:24.299Z,3.15
2023-03-05T08:43:26.262Z,3.10
2023-03-05T08:46:30.642Z,3.07
2023-03-05T08:49:32.518Z,3.08
2023-03-05T08:52:34.876Z,3.17
2023-03-05T08:55:37.704Z,3.30
2023-03-05T08:58:39.525Z,3.31
2023-03-05T09:01:41.383Z,3.32
2023-03-05T09:04:46.387Z,3.32
2023-03-05T09:07:48.668Z,3.49
2023-03-05T09:10:50.610Z,3.48
2023-03-05T09:13:52.346Z,3.34
2023-03-05T09:16:55.102Z,3.29
2023-03-05T09:19:56.804Z,3.16
2023-03-05T09:22:58.628Z,3.10
2023-03-05T09:26:00.853Z,3.24
2023-03-05T09:29:02.774Z,3.54
2023-03-05T09:32:04.918Z,3.74
2023-03-05T09:35:09.724Z,3.64
2023-03-05T09:38:11.452Z,3.59
2023-03-05T09:41:25.352Z,3.64
2023-03-05T09:44:43.784Z,3.73
2023-03-05T09:48:23.472Z,3.71
2023-03-05T09:51:31.597Z,3.62
2023-03-05T09:54:41.366Z,3.62
2023-03-05T09:57:49.519Z,3.81
2023-03-05T10:00:59.536Z,3.99
2023-03-05T10:04:01.436Z,3.97
2023-03-05T10:07:17.536Z,4.03
2023-03-05T10:10:25.424Z,3.98
2023-03-05T10:13:32.759Z,4.10
2023-03-05T10:16:52.737Z,4.35
2023-03-05T10:20:23.516Z,4.53
2023-03-05T10:23:46.281Z,4.70
2023-03-05T10:27:08.984Z,4.82
2023-03-05T10:30:48.722Z,4.89
2023-03-05T10:34:12.250Z,4.78
2023-03-05T10:37:51.706Z,4.69
2023-03-05T10:40:55.927Z,4.71
2023-03-05T10:44:16.531Z,4.68
2023-03-05T10:47:24.410Z,4.49
2023-03-05T10:50:48.373Z,4.37
2023-03-05T10:53:58.457Z,4.15
2023-03-05T10:57:25.279Z,4.00
2023-03-05T11:00:28.334Z,3.84
2023-03-05T11:03:52.266Z,3.78
2023-03-05T11:06:54.272Z,3.65
2023-03-05T11:10:21.524Z,3.68
2023-03-05T11:13:34.047Z,3.96
2023-03-05T11:16:47.887Z,4.22
2023-03-05T11:19:49.714Z,4.37
2023-03-05T11:23:24.354Z,4.23
2023-03-05T11:26:26.171Z,3.96
2023-03-05T11:29:31.319Z,4.05
2023-03-05T11:32:33.658Z,4.02
2023-03-05T11:35:38.117Z,3.89
2023-03-05T11:38:52.248Z,4.10
2023-03-05T11:42:06.259Z,4.52
2023-03-05T11:45:16.412Z,4.82
2023-03-05T11:48:27.118Z,5.09
2023-03-05T11:51:33.686Z,5.01
2023-03-05T11:55:00.267Z,5.07
2023-03-05T11:58:20.463Z,4.92
2023-03-05T12:01:25.431Z,4.94
2023-03-05T12:04:27.787Z,4.67
2023-03-05T12:07:43.254Z,4.28
2023-03-05T12:10:45.366Z,4.27
2023-03-05T12:13:52.453Z,4.67
2023-03-05T12:17:14.679Z,5.18
2023-03-05T12:20:34.733Z,5.33
2023-03-05T12:23:58.993Z,5.39
2023-03-05T12:27:05.621Z,5.36
2023-03-05T12:30:45.968Z,5.52
2023-03-05T12:33:49.978Z,5.68
2023-03-05T12:36:51.611Z,5.67
2023-03-05T12:40:19.456Z,5.36
2023-03-05T12:43:34.802Z,4.95
2023-03-05T12:46:44.151Z,4.58
2023-03-05T12:49:47.152Z,4.48
2023-03-05T12:52:48.950Z,4.53
2023-03-05T12:56:16.471Z,4.89
2023-03-05T12:59:23.170Z,5.36
2023-03-05T13:02:40.948Z,5.55
2023-03-05T13:05:50.609Z,5.67
2023-03-05T13:08:58.218Z,5.71
2023-03-05T13:12:01.669Z,5.60
2023-03-05T13:15:06.521Z,5.47
2023-03-05T13:18:28.032Z,5.41
2023-03-05T13:21:34.280Z,5.38
2023-03-05T13:24:36.000Z,5.52
2023-03-05T13:27:38.223Z,5.63
2023-03-05T13:30:45.604Z,5.55
2023-03-05T13:34:05.794Z,5.40
2023-03-05T13:37:17.761Z,5.19
2023-03-05T13:40:24.681Z,5.18
2023-03-05T13:43:26.539Z,5.23
2023-03-05T13:46:34.810Z,5.32
2023-03-05T13:49:36.925Z,5.56
2023-03-05T13:52:38.878Z,5.64
2023-03-05T13:55:43.399Z,5.57
2023-03-05T13:58:56.070Z,5.53
2023-03-05T14:02:00.385Z,5.49
2023-03-05T14:05:05.816Z,5.60
2023-03-05T14:08:23.792Z,5.69
2023-03-05T14:11:26.507Z,5.79
2023-03-05T14:14:29.820Z,5.96
2023-03-05T14:17:43.221Z,5.86
2023-03-05T14:21:11.328Z,6.23
2023-03-05T14:24:23.690Z,6.51
2023-03-05T14:27:26.360Z,6.50
2023-03-05T14:30:30.930Z,6.31
2023-03-05T14:33:34.496Z,6.40
2023-03-05T14:36:36.806Z,6.38
2023-03-05T14:39:54.592Z,6.51
2023-03-05T14:42:57.728Z,6.61
2023-03-05T14:46:00.336Z,6.34
2023-03-05T14:49:02.995Z,6.39
2023-03-05T14:52:16.925Z,6.52
2023-03-05T14:55:21.699Z,6.23
2023-03-05T14:58:28.078Z,6.09
2023-03-05T15:01:29.969Z,5.99
2023-03-05T15:04:32.404Z,6.12
2023-03-05T15:07:34.209Z,6.19
2023-03-05T15:10:37.207Z,6.10
2023-03-05T15:13:39.007Z,5.82
2023-03-05T15:16:43.713Z,5.67
2023-03-05T15:19:47.389Z,5.65
2023-03-05T15:22:49.276Z,5.52
2023-03-05T15:25:51.128Z,5.32
2023-03-05T15:28:53.034Z,5.27
2023-03-05T15:31:57.017Z,5.39
2023-03-05T15:34:58.644Z,5.45
2023-03-05T15:38:00.461Z,5.34
2023-03-05T15:41:02.305Z,5.24
2023-03-05T15:44:04.178Z,5.17
2023-03-05T15:47:06.785Z,5.16
2023-03-05T15:50:10.296Z,5.24
2023-03-05T15:53:15.613Z,5.14
2023-03-05T15:56:20.352Z,5.09
2023-03-05T15:59:22.377Z,5.04
2023-03-05T16:02:25.053Z,5.07
2023-03-05T16:05:27.906Z,4.99
2023-03-05T16:08:29.625Z,4.93
2023-03-05T16:11:37.385Z,4.81
2023-03-05T16:14:43.275Z,4.72
2023-03-05T16:17:48.760Z,4.67
2023-03-05T16:20:51.791Z,4.57
2023-03-05T16:23:53.480Z,4.52
2023-03-05T16:26:57.355Z,4.41
2023-03-05T16:29:58.939Z,4.37
2023-03-05T16:33:00.845Z,4.32
2023-03-05T16:36:20.886Z,4.32
2023-03-05T16:39:24.308Z,4.30
2023-03-05T16:42:26.470Z,4.26
2023-03-05T16:45:28.195Z,4.29
2023-03-05T16:48:31.248Z,4.23
2023-03-05T16:51:33.047Z,4.18
2023-03-05T16:54:37.076Z,4.21
2023-03-05T16:57:41.547Z,4.18
2023-03-05T17:00:43.544Z,4.21
2023-03-05T17:03:49.340Z,4.16
2023-03-05T17:06:51.909Z,4.07
2023-03-05T17:09:54.210Z,4.08
2023-03-05T17:12:56.918Z,4.02
2023-03-05T17:15:58.903Z,3.91
2023-03-05T17:19:06.669Z,3.74
2023-03-05T17:22:15.336Z,3.78
2023-03-05T17:25:16.979Z,3.64
2023-03-05T17:28:18.885Z,3.73
2023-03-05T17:31:23.477Z,3.77
2023-03-05T17:34:35.679Z,3.79
2023-03-05T17:37:38.007Z,3.80
2023-03-05T17:40:39.937Z,3.72
2023-03-05T17:43:44.143Z,3.71
2023-03-05T17:46:45.772Z,3.67
2023-03-05T17:49:47.545Z,3.66
2023-03-05T17:52:49.822Z,3.69
2023-03-05T17:55:51.926Z,3.69
2023-03-05T17:58:53.715Z,3.71
2023-03-05T18:01:57.657Z,3.58
2023-03-05T18:04:59.817Z,3.38
2023-03-05T18:08:03.424Z,3.24
2023-03-05T18:11:05.355Z,3.13
2023-03-05T18:14:10.478Z,3.11
2023-03-05T18:17:12.385Z,3.01
2023-03-05T18:20:28.553Z,2.94
2023-03-05T18:23:30.422Z,2.94
2023-03-05T18:26:33.213Z,2.88
2023-03-05T18:29:35.093Z,2.84
2023-03-05T18:32:37.034Z,2.84
2023-03-05T18:35:39.676Z,2.75
2023-03-05T18:38:41.510Z,2.65
2023-03-05T18:41:43.228Z,2.71
2023-03-05T18:44:44.847Z,2.79
2023-03-05T18:47:48.069Z,2.83
2023-03-05T18:50:55.956Z,2.94
2023-03-05T18:53:57.863Z,2.89
2023-03-05T18:57:00.347Z,2.93
2023-03-05T19:00:02.154Z,3.00
2023-03-05T19:03:05.780Z,2.98
2023-03-05T19:06:07.986Z,3.05
2023-03-05T19:09:19.470Z,3.11
2023-03-05T19:12:24.225Z,3.14
2023-03-05T19:15:25.830Z,3.14
2023-03-05T19:18:28.761Z,3.15
2023-03-05T19:21:31.792Z,3.24
2023-03-05T19:24:34.516Z,3.25
2023-03-05T19:27:37.127Z,3.26
2023-03-05T19:30:39.601Z,3.17
2023-03-05T19:33:42.532Z,3.08
2023-03-05T19:36:44.549Z,3.03
2023-03-05T19:39:46.529Z,3.04
2023-03-05T19:42:48.155Z,3.01
2023-03-05T19:45:50.516Z,2.99
2023-03-05T19:48:52.399Z,2.99
2023-03-05T19:51:55.081Z,3.07
2023-03-05T19:54:56.895Z,3.12
2023-03-05T19:57:58.495Z,3.05
2023-03-05T20:01:25.859Z,3.10
2023-03-05T20:04:28.264Z,3.01
2023-03-05T20:07:30.000Z,3.07
2023-03-05T20:10:31.773Z,3.05
2023-03-05T20:13:33.761Z,3.07
2023-03-05T20:16:36.549Z,2.99
2023-03-05T20:19:38.374Z,3.01
2023-03-05T20:22:45.638Z,2.94
2023-03-05T20:25:48.824Z,3.02
2023-03-05T20:28:50.542Z,2.96
2023-03-05T20:31:54.137Z,2.89
2023-03-05T20:34:56.263Z,2.86
2023-03-05T20:38:21.255Z,2.90
2023-03-05T20:41:22.898Z,2.84
2023-03-05T20:44:24.503Z,2.85
2023-03-05T20:47:38.142Z,2.87
2023-03-05T20:50:41.071Z,2.87
2023-03-05T20:53:43.495Z,2.90
2023-03-05T20:56:45.147Z,3.00
2023-03-05T20:59:46.813Z,2.98
2023-03-05T21:02:51.561Z,3.04
2023-03-05T21:05:56.463Z,2.96
2023-03-05T21:08:58.759Z,2.95
2023-03-05T21:12:00.928Z,2.94
2023-03-05T21:15:02.741Z,2.88
2023-03-05T21:18:04.657Z,2.88
2023-03-05T21:21:06.761Z,2.96
2023-03-05T21:24:08.474Z,2.95
2023-03-05T21:27:10.644Z,2.97
2023-03-05T21:30:12.709Z,2.90
2023-03-05T21:33:25.803Z,2.94
2023-03-05T21:36:28.574Z,2.92
2023-03-05T21:39:30.085Z,2.84
2023-03-05T21:42:32.463Z,2.79
2023-03-05T21:45:34.112Z,2.77
2023-03-05T21:48:36.852Z,2.73
2023-03-05T21:51:49.535Z,2.54
2023-03-05T21:54:54.050Z,2.51
2023-03-05T21:57:55.688Z,2.41
2023-03-05T22:00:58.424Z,2.42
2023-03-05T22:04:00.293Z,2.41
2023-03-05T22:07:02.064Z,2.36
2023-03-05T22:10:03.959Z,2.42
2023-03-05T22:13:12.451Z,2.36
2023-03-05T22:16:27.698Z,2.43
2023-03-05T22:19:29.951Z,2.43
2023-03-05T22:22:31.548Z,2.39
2023-03-05T22:25:33.367Z,2.35
2023-03-05T22:28:38.830Z,2.37
2023-03-05T22:31:40.700Z,2.36
2023-03-05T22:34:42.311Z,2.35
2023-03-05T22:37:44.363Z,2.31
2023-03-05T22:40:48.081Z,2.31
2023-03-05T22:43:50.453Z,2.30
2023-03-05T22:46:52.290Z,2.29
2023-03-05T22:49:57.574Z,2.39
2023-03-05T22:52:59.537Z,2.34
2023-03-05T22:56:07.143Z,2.44
2023-03-05T22:59:08.661Z,2.46
2023-03-05T23:02:10.520Z,2.42
2023-03-05T23:05:12.250Z,2.40
2023-03-05T23:08:13.843Z,2.42
2023-03-05T23:11:15.464Z,2.46
2023-03-05T23:14:17.039Z,2.49
2023-03-05T23:17:18.727Z,2.48
2023-03-05T23:20:22.845Z,2.45
2023-03-05T23:23:25.647Z,2.47
2023-03-05T23:26:27.288Z,2.45
2023-03-05T23:29:30.266Z,2.40
2023-03-05T23:32:32.079Z,2.39
2023-03-05T23:35:37.506Z,2.47
2023-03-05T23:38:39.303Z,2.49
2023-03-05T23:41:41.021Z,2.56
2023-03-05T23:44:42.532Z,2.56
2023-03-05T23:47:44.908Z,2.55
2023-03-05T23:50:47.905Z,2.48
2023-03-05T23:53:49.640Z,2.54
2023-03-05T23:56:51.366Z,2.57
2023-03-05T23:59:53.120Z,2.63
